createdAt,value
2023-02-23T15:13:46.618Z,1645.00
2023-02-23T15:17:46.643Z,1766.00
2023-02-23T15:21:46.318Z,1709.00
2023-02-23T15:25:46.381Z,1688.00
2023-02-23T15:29:46.270Z,1701.00
2023-02-23T15:33:46.222Z,1695.00
2023-02-23T15:37:47.317Z,1690.00
2023-02-23T15:41:47.150Z,1680.00
2023-02-23T15:45:46.127Z,1668.00
2023-02-23T15:49:46.115Z,1637.00
2023-02-23T15:53:46.044Z,1618.00
2023-02-23T15:57:46.054Z,1607.00
2023-02-23T16:01:46.028Z,1600.00
2023-02-23T16:05:47.233Z,1591.00
2023-02-23T16:09:46.091Z,1594.00
2023-02-23T16:13:46.112Z,1586.00
2023-02-23T16:17:46.117Z,1582.00
2023-02-23T16:21:46.104Z,1565.00
2023-02-23T16:25:46.197Z,1548.00
2023-02-23T16:29:46.210Z,1536.00
2023-02-23T16:33:46.233Z,1532.00
2023-02-23T16:37:46.299Z,1521.00
2023-02-23T16:41:46.330Z,1512.00
2023-02-23T16:45:46.475Z,1501.00
2023-02-23T16:49:46.440Z,1482.00
2023-02-23T16:53:46.519Z,1472.00
2023-02-23T16:57:46.572Z,1458.00
2023-02-23T17:01:46.677Z,1454.00
2023-02-23T17:05:46.754Z,1455.00
2023-02-23T17:09:46.818Z,1451.00
2023-02-23T17:13:46.911Z,1443.00
2023-02-23T17:17:47.662Z,1433.00
2023-02-23T17:21:47.109Z,1428.00
2023-02-23T17:25:47.177Z,1422.00
2023-02-23T17:29:47.282Z,1414.00
2023-02-23T17:33:47.392Z,1408.00
2023-02-23T17:37:47.466Z,1400.00
2023-02-23T17:41:47.614Z,1401.00
2023-02-23T17:45:47.704Z,1393.00
2023-02-23T17:49:47.820Z,1386.00
2023-02-23T17:53:47.923Z,1384.00
2023-02-23T17:57:48.065Z,1383.00
2023-02-23T18:01:48.652Z,1374.00
2023-02-23T18:05:48.364Z,1364.00
2023-02-23T18:09:48.551Z,1359.00
2023-02-23T18:13:48.590Z,1351.00
2023-02-23T18:17:48.729Z,1344.00
2023-02-23T18:21:48.891Z,1336.00
2023-02-23T18:25:49.139Z,1330.00
2023-02-23T18:29:49.166Z,1324.00
2023-02-23T18:33:49.350Z,1318.00
2023-02-23T18:37:49.485Z,1311.00
2023-02-23T18:41:49.652Z,1307.00
2023-02-23T18:45:49.772Z,1301.00
2023-02-23T18:49:49.923Z,1295.00
2023-02-23T18:53:50.091Z,1293.00
2023-02-23T18:57:50.238Z,1285.00
2023-02-23T19:01:50.401Z,1280.00
2023-02-23T19:05:50.569Z,1274.00
2023-02-23T19:09:50.717Z,1270.00
2023-02-23T19:13:50.875Z,1259.00
2023-02-23T19:17:51.077Z,1258.00
2023-02-23T19:21:51.196Z,1249.00
2023-02-23T19:25:51.429Z,1244.00
2023-02-23T19:29:51.567Z,1240.00
2023-02-23T19:33:51.771Z,1239.00
2023-02-23T19:37:51.928Z,1232.00
2023-02-23T19:41:52.108Z,1229.00
2023-02-23T19:45:52.402Z,1215.00
2023-02-23T19:49:52.562Z,1201.00
2023-02-23T19:53:52.775Z,1194.00
2023-02-23T19:57:53.004Z,1186.00
2023-02-23T20:01:53.057Z,1180.00
2023-02-23T20:05:52.908Z,1168.00
2023-02-23T20:09:52.872Z,1165.00
2023-02-23T20:13:52.883Z,1148.00
2023-02-23T20:17:52.804Z,1145.00
2023-02-23T20:21:52.846Z,1140.00
2023-02-23T20:25:52.774Z,1143.00
2023-02-23T20:29:52.713Z,1128.00
2023-02-23T20:33:52.664Z,1112.00
2023-02-23T20:37:52.688Z,1109.00
2023-02-23T20:41:52.660Z,1102.00
2023-02-23T20:45:52.638Z,1099.00
2023-02-23T20:49:52.566Z,1096.00
2023-02-23T20:53:52.538Z,1092.00
2023-02-23T20:57:52.496Z,1071.00
2023-02-23T21:01:52.550Z,1060.00
2023-02-23T21:05:52.450Z,1062.00
2023-02-23T21:09:52.446Z,1054.00
2023-02-23T21:13:52.389Z,1045.00
2023-02-23T21:17:52.449Z,1040.00
2023-02-23T21:21:53.767Z,1035.00
2023-02-23T21:25:52.385Z,1038.00
2023-02-23T21:29:52.340Z,1029.00
2023-02-23T21:33:52.285Z,1020.00
2023-02-23T21:37:52.254Z,1019.00
2023-02-23T21:41:52.317Z,1013.00
2023-02-23T21:45:52.394Z,999.00
2023-02-23T21:49:52.523Z,994.00
2023-02-23T21:53:52.698Z,984.00
2023-02-23T21:57:52.776Z,983.00
2023-02-23T22:01:52.877Z,981.00
2023-02-23T22:05:52.874Z,975.00
2023-02-23T22:09:52.969Z,971.00
2023-02-23T22:13:53.048Z,969.00
2023-02-23T22:17:53.083Z,957.00
2023-02-23T22:21:53.138Z,956.00
2023-02-23T22:25:53.201Z,956.00
2023-02-23T22:29:53.244Z,953.00
2023-02-23T22:33:53.282Z,950.00
2023-02-23T22:37:53.339Z,950.00
2023-02-23T22:41:53.408Z,944.00
2023-02-23T22:45:53.417Z,935.00
2023-02-23T22:49:53.493Z,923.00
2023-02-23T22:53:53.541Z,921.00
2023-02-23T22:57:53.537Z,921.00
2023-02-23T23:01:53.600Z,910.00
2023-02-23T23:05:53.611Z,913.00
2023-02-23T23:09:53.721Z,908.00
2023-02-23T23:13:53.705Z,909.00
2023-02-23T23:17:53.708Z,906.00
2023-02-23T23:21:53.694Z,901.00
2023-02-23T23:25:53.730Z,896.00
2023-02-23T23:29:53.728Z,887.00
2023-02-23T23:33:53.744Z,895.00
2023-02-23T23:37:53.736Z,893.00
2023-02-23T23:41:53.738Z,890.00
2023-02-23T23:45:53.722Z,883.00
2023-02-23T23:49:53.686Z,877.00
2023-02-23T23:53:53.709Z,877.00
2023-02-23T23:57:53.633Z,873.00
